Kanab, UT

7:52 AM MST on January 27, 2015 (GMT -0700)
RAWS TELEGRAPH FLAT UT US | Change Station
CLOSE
Current Station
Personal Weather Station
Location: Kanab, UT
Elevation: 5459 ft
Nearby Weather Stations

Elev 5459 ft 37.19 °N, 112.03 °W | Updated 55 minutes ago

Overcast
Overcast
38 °F
Feels Like 34 °F
N
5
Wind Variable Wind from NE
Gusts 6.0 mph

Today
High -- | Low -- °F
--% Chance of Precip.
Yesterday
High -- | Low -- °F
Precip. -- in
7:35 AM 5:47 PM
First Quarter, 54% visible
Pressure 30.31 in
Visibility 10.0 miles
Clouds Mostly Cloudy 2300 ft
Mostly Cloudy 3100 ft
Overcast 5500 ft
Windchill 34 °F
Dew Point 34 °F
Humidity 85%
Rainfall 0.00 in
Snow Depth Not available.
UV 0 out of 12
Pollen 4.20 out of 12
Air Quality Not available.
Flu Activity Not available.
METAR KAZC 271435Z AUTO 16003KT 10SM BKN023 BKN031 OVC055 06/06 A3031 RMK AO2 T00610056

More Conditions Fewer Conditions

Pressure 30.31 in
Visibility 10.0 miles
Clouds Mostly Cloudy 2300 ft
Mostly Cloudy 3100 ft
Overcast 5500 ft
Windchill 34 °F
Dew Point 34 °F
Humidity 85%
Rainfall 0.00 in
Snow Depth Not available.
UV 0 out of 12
Pollen 4.20 out of 12
Air Quality Not available.
Flu Activity Not available.
METAR KAZC 271435Z AUTO 16003KT 10SM BKN023 BKN031 OVC055 06/06 A3031 RMK AO2 T00610056

More Conditions Fewer Conditions

10-Day Weather Forecast

Almanac

Astronomy

Jan. 27, 2015 Rise Set
Actual Time
Civil Twilight
Nautical Twilight
Astronomical Twilight
Moon
Length of Visible Light
Length of Day
Tomorrow will be .
, % of the Moon is Illuminated

Today's Extremes

State Highs State Lows

Community

WunderPhotos

Upload Photos

1,790,655 photos uploaded!

WunderBlogs® & News

Nearby

Air Quality

  Air Quality AQ Index Pollutant
Not available.

Snow Depth

Station Depth Elevation

Earthquake Activity

City Distance Mag. Time & Date
Minimum magnitude displayed is 2.5.

Coastal Water Temperatures

Place Temperature

Nearby Weather Stations